sensor_id;sensor_type;location;lat;lon;timestamp;P1;durP1;ratioP1;P2;durP2;ratioP2
24389;SDS011;12510;56.468;-3.004;2023-06-26T00:02:12;3.25;;;1.08;;
24389;SDS011;12510;56.468;-3.004;2023-06-26T00:04:38;1.20;;;1.10;;
24389;SDS011;12510;56.468;-3.004;2023-06-26T00:07:05;3.13;;;1.30;;
24389;SDS011;12510;56.468;-3.004;2023-06-26T00:09:31;1.67;;;1.10;;
24389;SDS011;12510;56.468;-3.004;2023-06-26T00:11:58;1.48;;;1.02;;
24389;SDS011;12510;56.468;-3.004;2023-06-26T00:14:25;1.70;;;0.80;;
24389;SDS011;12510;56.468;-3.004;2023-06-26T00:16:52;5.32;;;1.88;;
24389;SDS011;12510;56.468;-3.004;2023-06-26T00:19:18;1.27;;;0.88;;
24389;SDS011;12510;56.468;-3.004;2023-06-26T00:21:45;3.20;;;1.00;;
24389;SDS011;12510;56.468;-3.004;2023-06-26T00:24:14;1.23;;;1.13;;
24389;SDS011;12510;56.468;-3.004;2023-06-26T00:26:41;3.05;;;1.08;;
24389;SDS011;12510;56.468;-3.004;2023-06-26T00:29:07;2.70;;;1.30;;
24389;SDS011;12510;56.468;-3.004;2023-06-26T00:31:34;1.63;;;1.02;;
24389;SDS011;12510;56.468;-3.004;2023-06-26T00:34:01;2.08;;;1.13;;
24389;SDS011;12510;56.468;-3.004;2023-06-26T00:36:28;1.45;;;1.25;;
24389;SDS011;12510;56.468;-3.004;2023-06-26T00:38:54;1.50;;;1.40;;
24389;SDS011;12510;56.468;-3.004;2023-06-26T00:41:20;2.47;;;1.00;;
24389;SDS011;12510;56.468;-3.004;2023-06-26T00:43:47;3.40;;;1.08;;
24389;SDS011;12510;56.468;-3.004;2023-06-26T00:46:14;1.95;;;1.50;;
24389;SDS011;12510;56.468;-3.004;2023-06-26T00:48:41;2.13;;;1.30;;
24389;SDS011;12510;56.468;-3.004;2023-06-26T00:51:10;2.40;;;1.35;;
24389;SDS011;12510;56.468;-3.004;2023-06-26T00:53:37;2.55;;;1.08;;
24389;SDS011;12510;56.468;-3.004;2023-06-26T00:56:04;3.17;;;0.95;;
24389;SDS011;12510;56.468;-3.004;2023-06-26T00:58:31;1.10;;;1.00;;
24389;SDS011;12510;56.468;-3.004;2023-06-26T01:00:58;1.30;;;1.20;;
24389;SDS011;12510;56.468;-3.004;2023-06-26T01:03:26;3.03;;;1.10;;
24389;SDS011;12510;56.468;-3.004;2023-06-26T01:05:56;2.08;;;1.20;;
24389;SDS011;12510;56.468;-3.004;2023-06-26T01:08:25;12.45;;;2.53;;
24389;SDS011;12510;56.468;-3.004;2023-06-26T01:10:52;1.98;;;1.50;;
24389;SDS011;12510;56.468;-3.004;2023-06-26T01:13:19;4.57;;;1.63;;
24389;SDS011;12510;56.468;-3.004;2023-06-26T01:15:46;3.00;;;1.73;;
24389;SDS011;12510;56.468;-3.004;2023-06-26T01:18:13;3.03;;;1.15;;
24389;SDS011;12510;56.468;-3.004;2023-06-26T01:20:41;1.70;;;1.17;;
24389;SDS011;12510;56.468;-3.004;2023-06-26T01:23:12;2.38;;;1.40;;
24389;SDS011;12510;56.468;-3.004;2023-06-26T01:26:16;2.45;;;1.60;;
24389;SDS011;12510;56.468;-3.004;2023-06-26T01:28:46;3.08;;;1.95;;
24389;SDS011;12510;56.468;-3.004;2023-06-26T01:31:14;1.60;;;1.10;;
24389;SDS011;12510;56.468;-3.004;2023-06-26T01:33:41;2.45;;;1.85;;
24389;SDS011;12510;56.468;-3.004;2023-06-26T01:36:09;1.92;;;1.20;;
24389;SDS011;12510;56.468;-3.004;2023-06-26T01:38:36;1.85;;;1.70;;
24389;SDS011;12510;56.468;-3.004;2023-06-26T01:41:03;2.25;;;1.75;;
24389;SDS011;12510;56.468;-3.004;2023-06-26T01:51:23;2.70;;;1.33;;
24389;SDS011;12510;56.468;-3.004;2023-06-26T01:53:56;1.40;;;1.30;;
24389;SDS011;12510;56.468;-3.004;2023-06-26T01:56:24;6.30;;;1.70;;
24389;SDS011;12510;56.468;-3.004;2023-06-26T01:58:54;4.50;;;2.15;;
24389;SDS011;12510;56.468;-3.004;2023-06-26T02:01:21;2.20;;;1.60;;
24389;SDS011;12510;56.468;-3.004;2023-06-26T02:03:48;2.47;;;1.45;;
24389;SDS011;12510;56.468;-3.004;2023-06-26T02:06:16;4.03;;;1.70;;
24389;SDS011;12510;56.468;-3.004;2023-06-26T02:08:42;3.33;;;1.58;;
24389;SDS011;12510;56.468;-3.004;2023-06-26T02:11:09;3.42;;;1.90;;
24389;SDS011;12510;56.468;-3.004;2023-06-26T02:13:35;4.43;;;1.60;;
24389;SDS011;12510;56.468;-3.004;2023-06-26T02:16:02;2.58;;;1.65;;
24389;SDS011;12510;56.468;-3.004;2023-06-26T02:18:28;5.25;;;1.85;;
24389;SDS011;12510;56.468;-3.004;2023-06-26T02:20:55;2.90;;;1.67;;
24389;SDS011;12510;56.468;-3.004;2023-06-26T02:23:21;4.35;;;2.05;;
24389;SDS011;12510;56.468;-3.004;2023-06-26T02:25:48;2.15;;;1.55;;
24389;SDS011;12510;56.468;-3.004;2023-06-26T02:28:14;2.95;;;1.77;;
24389;SDS011;12510;56.468;-3.004;2023-06-26T02:30:42;3.45;;;2.33;;
24389;SDS011;12510;56.468;-3.004;2023-06-26T02:33:09;3.92;;;2.38;;
24389;SDS011;12510;56.468;-3.004;2023-06-26T02:35:35;3.50;;;1.75;;
24389;SDS011;12510;56.468;-3.004;2023-06-26T02:38:02;3.40;;;1.85;;
24389;SDS011;12510;56.468;-3.004;2023-06-26T02:40:28;2.97;;;1.67;;
24389;SDS011;12510;56.468;-3.004;2023-06-26T02:42:55;3.05;;;1.60;;
24389;SDS011;12510;56.468;-3.004;2023-06-26T02:45:23;2.97;;;1.90;;
24389;SDS011;12510;56.468;-3.004;2023-06-26T02:47:49;2.67;;;1.88;;
24389;SDS011;12510;56.468;-3.004;2023-06-26T02:50:16;3.38;;;1.73;;
24389;SDS011;12510;56.468;-3.004;2023-06-26T02:53:04;3.95;;;2.00;;
24389;SDS011;12510;56.468;-3.004;2023-06-26T02:55:30;4.80;;;1.80;;
24389;SDS011;12510;56.468;-3.004;2023-06-26T02:57:57;3.83;;;2.13;;
24389;SDS011;12510;56.468;-3.004;2023-06-26T03:00:24;3.22;;;1.90;;
24389;SDS011;12510;56.468;-3.004;2023-06-26T03:02:52;3.65;;;1.83;;
24389;SDS011;12510;56.468;-3.004;2023-06-26T03:05:20;5.30;;;2.28;;
24389;SDS011;12510;56.468;-3.004;2023-06-26T03:07:47;3.20;;;2.10;;
24389;SDS011;12510;56.468;-3.004;2023-06-26T03:10:14;2.97;;;2.17;;
24389;SDS011;12510;56.468;-3.004;2023-06-26T03:12:42;3.95;;;2.15;;
24389;SDS011;12510;56.468;-3.004;2023-06-26T03:15:10;6.13;;;2.60;;
24389;SDS011;12510;56.468;-3.004;2023-06-26T03:17:38;6.15;;;2.03;;
24389;SDS011;12510;56.468;-3.004;2023-06-26T03:20:08;4.82;;;2.08;;
24389;SDS011;12510;56.468;-3.004;2023-06-26T03:22:55;2.33;;;1.67;;
24389;SDS011;12510;56.468;-3.004;2023-06-26T03:25:22;3.40;;;1.77;;
24389;SDS011;12510;56.468;-3.004;2023-06-26T03:27:55;3.38;;;1.80;;
24389;SDS011;12510;56.468;-3.004;2023-06-26T03:30:21;4.63;;;1.95;;
24389;SDS011;12510;56.468;-3.004;2023-06-26T03:32:51;7.80;;;2.90;;
24389;SDS011;12510;56.468;-3.004;2023-06-26T03:35:17;3.38;;;2.00;;
24389;SDS011;12510;56.468;-3.004;2023-06-26T03:37:44;5.50;;;2.17;;
24389;SDS011;12510;56.468;-3.004;2023-06-26T03:40:11;2.42;;;1.50;;
24389;SDS011;12510;56.468;-3.004;2023-06-26T03:42:38;2.38;;;1.70;;
24389;SDS011;12510;56.468;-3.004;2023-06-26T03:45:04;4.57;;;2.10;;
24389;SDS011;12510;56.468;-3.004;2023-06-26T03:47:33;4.10;;;2.10;;
24389;SDS011;12510;56.468;-3.004;2023-06-26T03:49:59;2.90;;;1.65;;
24389;SDS011;12510;56.468;-3.004;2023-06-26T03:52:25;4.32;;;2.38;;
24389;SDS011;12510;56.468;-3.004;2023-06-26T03:54:52;4.93;;;2.22;;
24389;SDS011;12510;56.468;-3.004;2023-06-26T03:57:18;5.15;;;2.28;;
24389;SDS011;12510;56.468;-3.004;2023-06-26T03:59:47;3.83;;;2.08;;
24389;SDS011;12510;56.468;-3.004;2023-06-26T04:02:13;3.08;;;1.58;;
24389;SDS011;12510;56.468;-3.004;2023-06-26T04:04:42;3.53;;;2.15;;
24389;SDS011;12510;56.468;-3.004;2023-06-26T04:07:09;1.98;;;1.70;;
24389;SDS011;12510;56.468;-3.004;2023-06-26T04:09:36;5.43;;;2.13;;
24389;SDS011;12510;56.468;-3.004;2023-06-26T04:12:03;2.50;;;1.70;;
24389;SDS011;12510;56.468;-3.004;2023-06-26T04:14:29;4.57;;;2.20;;
24389;SDS011;12510;56.468;-3.004;2023-06-26T04:16:56;5.03;;;2.03;;
24389;SDS011;12510;56.468;-3.004;2023-06-26T04:19:23;2.70;;;1.85;;
24389;SDS011;12510;56.468;-3.004;2023-06-26T04:21:50;3.67;;;1.92;;
24389;SDS011;12510;56.468;-3.004;2023-06-26T04:24:16;3.33;;;2.35;;
24389;SDS011;12510;56.468;-3.004;2023-06-26T04:26:43;4.45;;;1.80;;
24389;SDS011;12510;56.468;-3.004;2023-06-26T04:29:11;3.97;;;1.90;;
24389;SDS011;12510;56.468;-3.004;2023-06-26T04:31:38;5.05;;;2.10;;
24389;SDS011;12510;56.468;-3.004;2023-06-26T04:34:05;5.22;;;2.15;;
24389;SDS011;12510;56.468;-3.004;2023-06-26T04:36:31;3.28;;;2.17;;
24389;SDS011;12510;56.468;-3.004;2023-06-26T04:38:59;4.03;;;1.77;;
24389;SDS011;12510;56.468;-3.004;2023-06-26T04:41:25;2.47;;;2.25;;
24389;SDS011;12510;56.468;-3.004;2023-06-26T04:43:52;3.85;;;1.67;;
24389;SDS011;12510;56.468;-3.004;2023-06-26T04:46:18;5.85;;;2.22;;
24389;SDS011;12510;56.468;-3.004;2023-06-26T04:48:45;5.30;;;1.95;;
24389;SDS011;12510;56.468;-3.004;2023-06-26T04:51:11;4.30;;;2.20;;
24389;SDS011;12510;56.468;-3.004;2023-06-26T04:53:37;2.55;;;1.95;;
24389;SDS011;12510;56.468;-3.004;2023-06-26T04:56:04;5.70;;;2.67;;
24389;SDS011;12510;56.468;-3.004;2023-06-26T04:58:30;5.45;;;1.90;;
24389;SDS011;12510;56.468;-3.004;2023-06-26T05:00:57;3.30;;;1.73;;
24389;SDS011;12510;56.468;-3.004;2023-06-26T05:03:24;2.58;;;1.60;;
24389;SDS011;12510;56.468;-3.004;2023-06-26T05:05:51;3.45;;;2.20;;
24389;SDS011;12510;56.468;-3.004;2023-06-26T05:08:22;3.70;;;2.05;;
24389;SDS011;12510;56.468;-3.004;2023-06-26T05:10:50;4.93;;;2.15;;
24389;SDS011;12510;56.468;-3.004;2023-06-26T05:13:16;4.10;;;2.10;;
24389;SDS011;12510;56.468;-3.004;2023-06-26T05:15:45;3.88;;;2.60;;
24389;SDS011;12510;56.468;-3.004;2023-06-26T05:18:12;3.20;;;1.58;;
24389;SDS011;12510;56.468;-3.004;2023-06-26T05:20:39;4.78;;;1.63;;
24389;SDS011;12510;56.468;-3.004;2023-06-26T05:23:06;6.20;;;1.60;;
24389;SDS011;12510;56.468;-3.004;2023-06-26T05:25:32;4.88;;;1.48;;
24389;SDS011;12510;56.468;-3.004;2023-06-26T05:28:02;3.92;;;2.10;;
24389;SDS011;12510;56.468;-3.004;2023-06-26T05:30:31;2.50;;;1.20;;
24389;SDS011;12510;56.468;-3.004;2023-06-26T05:33:00;3.00;;;1.40;;
24389;SDS011;12510;56.468;-3.004;2023-06-26T05:35:30;5.93;;;1.70;;
24389;SDS011;12510;56.468;-3.004;2023-06-26T05:37:58;5.28;;;1.70;;
24389;SDS011;12510;56.468;-3.004;2023-06-26T05:40:25;3.60;;;1.60;;
24389;SDS011;12510;56.468;-3.004;2023-06-26T05:42:51;2.58;;;1.20;;
24389;SDS011;12510;56.468;-3.004;2023-06-26T05:45:18;7.32;;;2.25;;
24389;SDS011;12510;56.468;-3.004;2023-06-26T05:47:45;3.67;;;1.50;;
24389;SDS011;12510;56.468;-3.004;2023-06-26T05:50:12;3.47;;;1.55;;
24389;SDS011;12510;56.468;-3.004;2023-06-26T05:52:39;4.63;;;1.67;;
24389;SDS011;12510;56.468;-3.004;2023-06-26T05:55:06;3.15;;;1.50;;
24389;SDS011;12510;56.468;-3.004;2023-06-26T05:57:33;3.35;;;1.40;;
24389;SDS011;12510;56.468;-3.004;2023-06-26T06:00:03;5.68;;;1.50;;
24389;SDS011;12510;56.468;-3.004;2023-06-26T06:02:39;3.35;;;1.48;;
24389;SDS011;12510;56.468;-3.004;2023-06-26T06:05:07;2.35;;;1.30;;
24389;SDS011;12510;56.468;-3.004;2023-06-26T06:07:34;4.13;;;1.77;;
24389;SDS011;12510;56.468;-3.004;2023-06-26T06:10:02;2.38;;;1.33;;
24389;SDS011;12510;56.468;-3.004;2023-06-26T06:12:29;3.40;;;2.78;;
24389;SDS011;12510;56.468;-3.004;2023-06-26T06:14:56;3.15;;;1.60;;
24389;SDS011;12510;56.468;-3.004;2023-06-26T06:17:23;2.42;;;1.30;;
24389;SDS011;12510;56.468;-3.004;2023-06-26T06:19:49;2.30;;;1.15;;
24389;SDS011;12510;56.468;-3.004;2023-06-26T06:22:16;2.28;;;1.20;;
24389;SDS011;12510;56.468;-3.004;2023-06-26T06:24:45;2.00;;;1.43;;
24389;SDS011;12510;56.468;-3.004;2023-06-26T06:27:11;5.25;;;3.25;;
24389;SDS011;12510;56.468;-3.004;2023-06-26T06:29:38;2.28;;;1.35;;
24389;SDS011;12510;56.468;-3.004;2023-06-26T06:32:04;2.63;;;1.85;;
24389;SDS011;12510;56.468;-3.004;2023-06-26T06:34:31;3.28;;;2.45;;
24389;SDS011;12510;56.468;-3.004;2023-06-26T06:36:57;9.43;;;8.63;;
24389;SDS011;12510;56.468;-3.004;2023-06-26T06:39:24;13.90;;;12.65;;
24389;SDS011;12510;56.468;-3.004;2023-06-26T06:41:50;7.10;;;6.53;;
24389;SDS011;12510;56.468;-3.004;2023-06-26T06:44:17;8.93;;;8.13;;
24389;SDS011;12510;56.468;-3.004;2023-06-26T06:46:43;19.80;;;18.38;;
24389;SDS011;12510;56.468;-3.004;2023-06-26T06:49:10;61.80;;;56.70;;
24389;SDS011;12510;56.468;-3.004;2023-06-26T06:51:36;28.02;;;26.05;;
24389;SDS011;12510;56.468;-3.004;2023-06-26T06:54:02;30.17;;;28.15;;
24389;SDS011;12510;56.468;-3.004;2023-06-26T06:56:29;25.52;;;23.73;;
24389;SDS011;12510;56.468;-3.004;2023-06-26T06:58:55;24.27;;;22.63;;
24389;SDS011;12510;56.468;-3.004;2023-06-26T07:01:22;29.25;;;27.02;;
24389;SDS011;12510;56.468;-3.004;2023-06-26T07:03:48;32.28;;;29.83;;
24389;SDS011;12510;56.468;-3.004;2023-06-26T07:06:15;27.15;;;25.33;;
24389;SDS011;12510;56.468;-3.004;2023-06-26T07:08:41;18.15;;;16.85;;
24389;SDS011;12510;56.468;-3.004;2023-06-26T07:11:08;21.35;;;19.98;;
24389;SDS011;12510;56.468;-3.004;2023-06-26T07:13:34;20.80;;;19.45;;
24389;SDS011;12510;56.468;-3.004;2023-06-26T07:16:01;14.88;;;13.57;;
24389;SDS011;12510;56.468;-3.004;2023-06-26T07:18:27;18.33;;;17.20;;
24389;SDS011;12510;56.468;-3.004;2023-06-26T07:20:54;15.02;;;13.65;;
24389;SDS011;12510;56.468;-3.004;2023-06-26T07:23:20;20.88;;;19.58;;
24389;SDS011;12510;56.468;-3.004;2023-06-26T07:25:47;10.65;;;7.07;;
24389;SDS011;12510;56.468;-3.004;2023-06-26T07:28:13;5.45;;;4.95;;
24389;SDS011;12510;56.468;-3.004;2023-06-26T07:30:40;7.63;;;5.38;;
24389;SDS011;12510;56.468;-3.004;2023-06-26T07:33:06;8.85;;;7.97;;
24389;SDS011;12510;56.468;-3.004;2023-06-26T07:35:33;5.88;;;5.38;;
24389;SDS011;12510;56.468;-3.004;2023-06-26T07:37:59;5.35;;;4.95;;
24389;SDS011;12510;56.468;-3.004;2023-06-26T07:40:26;5.57;;;4.32;;
24389;SDS011;12510;56.468;-3.004;2023-06-26T07:42:53;5.57;;;4.22;;
24389;SDS011;12510;56.468;-3.004;2023-06-26T07:45:20;5.85;;;5.28;;
24389;SDS011;12510;56.468;-3.004;2023-06-26T07:47:46;5.82;;;5.32;;
24389;SDS011;12510;56.468;-3.004;2023-06-26T07:50:13;4.65;;;4.35;;
24389;SDS011;12510;56.468;-3.004;2023-06-26T07:52:45;12.23;;;11.40;;
24389;SDS011;12510;56.468;-3.004;2023-06-26T07:55:11;25.30;;;23.65;;
24389;SDS011;12510;56.468;-3.004;2023-06-26T07:57:38;19.70;;;18.15;;
24389;SDS011;12510;56.468;-3.004;2023-06-26T08:00:04;22.10;;;20.65;;
24389;SDS011;12510;56.468;-3.004;2023-06-26T08:02:40;15.93;;;14.80;;
24389;SDS011;12510;56.468;-3.004;2023-06-26T08:05:06;14.52;;;13.52;;
24389;SDS011;12510;56.468;-3.004;2023-06-26T08:07:33;14.98;;;14.07;;
24389;SDS011;12510;56.468;-3.004;2023-06-26T08:09:59;13.85;;;13.00;;
24389;SDS011;12510;56.468;-3.004;2023-06-26T08:12:26;11.68;;;10.93;;
24389;SDS011;12510;56.468;-3.004;2023-06-26T08:14:52;15.63;;;14.57;;
24389;SDS011;12510;56.468;-3.004;2023-06-26T08:17:19;16.77;;;15.82;;
24389;SDS011;12510;56.468;-3.004;2023-06-26T08:19:45;11.20;;;10.52;;
24389;SDS011;12510;56.468;-3.004;2023-06-26T08:22:12;8.23;;;7.60;;
24389;SDS011;12510;56.468;-3.004;2023-06-26T08:24:38;21.33;;;19.83;;
24389;SDS011;12510;56.468;-3.004;2023-06-26T08:27:05;12.60;;;11.73;;
24389;SDS011;12510;56.468;-3.004;2023-06-26T08:29:33;12.13;;;11.25;;
24389;SDS011;12510;56.468;-3.004;2023-06-26T08:31:59;9.55;;;8.85;;
24389;SDS011;12510;56.468;-3.004;2023-06-26T08:34:28;12.85;;;11.85;;
24389;SDS011;12510;56.468;-3.004;2023-06-26T08:36:54;8.75;;;8.15;;
24389;SDS011;12510;56.468;-3.004;2023-06-26T08:39:20;17.42;;;16.17;;
24389;SDS011;12510;56.468;-3.004;2023-06-26T08:41:47;8.52;;;7.97;;
24389;SDS011;12510;56.468;-3.004;2023-06-26T08:44:13;5.65;;;5.32;;
24389;SDS011;12510;56.468;-3.004;2023-06-26T08:46:40;15.52;;;14.48;;
24389;SDS011;12510;56.468;-3.004;2023-06-26T08:49:43;10.23;;;9.32;;
24389;SDS011;12510;56.468;-3.004;2023-06-26T08:52:10;10.35;;;9.57;;
24389;SDS011;12510;56.468;-3.004;2023-06-26T08:54:45;8.65;;;8.10;;
24389;SDS011;12510;56.468;-3.004;2023-06-26T08:57:14;8.55;;;7.88;;
24389;SDS011;12510;56.468;-3.004;2023-06-26T08:59:44;9.32;;;8.65;;
24389;SDS011;12510;56.468;-3.004;2023-06-26T09:02:11;8.07;;;7.60;;
24389;SDS011;12510;56.468;-3.004;2023-06-26T09:04:39;5.25;;;4.85;;
24389;SDS011;12510;56.468;-3.004;2023-06-26T09:07:06;11.32;;;10.45;;
24389;SDS011;12510;56.468;-3.004;2023-06-26T09:09:33;17.55;;;11.13;;
24389;SDS011;12510;56.468;-3.004;2023-06-26T09:12:01;8.55;;;7.95;;
24389;SDS011;12510;56.468;-3.004;2023-06-26T09:14:28;8.00;;;7.50;;
24389;SDS011;12510;56.468;-3.004;2023-06-26T09:16:55;7.55;;;6.90;;
24389;SDS011;12510;56.468;-3.004;2023-06-26T09:19:22;9.18;;;8.57;;
24389;SDS011;12510;56.468;-3.004;2023-06-26T09:21:49;6.90;;;6.35;;
24389;SDS011;12510;56.468;-3.004;2023-06-26T09:24:17;12.50;;;11.70;;
24389;SDS011;12510;56.468;-3.004;2023-06-26T09:26:43;10.85;;;10.15;;
24389;SDS011;12510;56.468;-3.004;2023-06-26T09:29:10;9.13;;;8.52;;
24389;SDS011;12510;56.468;-3.004;2023-06-26T09:31:37;12.07;;;11.10;;
24389;SDS011;12510;56.468;-3.004;2023-06-26T09:34:04;12.73;;;11.82;;
24389;SDS011;12510;56.468;-3.004;2023-06-26T09:36:31;5.88;;;5.45;;
24389;SDS011;12510;56.468;-3.004;2023-06-26T09:39:02;8.20;;;7.63;;
24389;SDS011;12510;56.468;-3.004;2023-06-26T09:41:30;9.85;;;9.20;;
24389;SDS011;12510;56.468;-3.004;2023-06-26T09:43:57;18.95;;;17.70;;
24389;SDS011;12510;56.468;-3.004;2023-06-26T09:46:29;7.28;;;6.88;;
24389;SDS011;12510;56.468;-3.004;2023-06-26T09:49:06;4.50;;;4.05;;
24389;SDS011;12510;56.468;-3.004;2023-06-26T09:51:35;4.97;;;4.20;;
24389;SDS011;12510;56.468;-3.004;2023-06-26T09:54:03;4.18;;;3.78;;
24389;SDS011;12510;56.468;-3.004;2023-06-26T09:56:31;9.82;;;9.07;;
24389;SDS011;12510;56.468;-3.004;2023-06-26T09:59:02;10.70;;;6.32;;
24389;SDS011;12510;56.468;-3.004;2023-06-26T10:01:31;8.95;;;8.25;;
24389;SDS011;12510;56.468;-3.004;2023-06-26T10:03:58;14.15;;;13.10;;
24389;SDS011;12510;56.468;-3.004;2023-06-26T10:06:28;7.28;;;6.65;;
24389;SDS011;12510;56.468;-3.004;2023-06-26T10:09:00;6.30;;;5.90;;
24389;SDS011;12510;56.468;-3.004;2023-06-26T10:11:30;9.00;;;8.43;;
24389;SDS011;12510;56.468;-3.004;2023-06-26T10:14:04;9.32;;;8.55;;
24389;SDS011;12510;56.468;-3.004;2023-06-26T10:16:33;5.32;;;5.03;;
24389;SDS011;12510;56.468;-3.004;2023-06-26T10:19:05;7.25;;;6.78;;
24389;SDS011;12510;56.468;-3.004;2023-06-26T10:21:34;5.15;;;4.72;;
24389;SDS011;12510;56.468;-3.004;2023-06-26T10:24:02;4.60;;;4.20;;
24389;SDS011;12510;56.468;-3.004;2023-06-26T10:26:29;4.03;;;3.72;;
24389;SDS011;12510;56.468;-3.004;2023-06-26T10:28:59;11.00;;;5.75;;
24389;SDS011;12510;56.468;-3.004;2023-06-26T10:31:26;8.40;;;7.85;;
24389;SDS011;12510;56.468;-3.004;2023-06-26T10:33:55;6.95;;;4.32;;
24389;SDS011;12510;56.468;-3.004;2023-06-26T10:36:29;5.15;;;4.80;;
24389;SDS011;12510;56.468;-3.004;2023-06-26T10:39:06;5.30;;;4.90;;
24389;SDS011;12510;56.468;-3.004;2023-06-26T10:41:50;7.10;;;6.47;;
24389;SDS011;12510;56.468;-3.004;2023-06-26T10:44:21;6.25;;;5.80;;
24389;SDS011;12510;56.468;-3.004;2023-06-26T10:49:14;4.90;;;4.63;;
24389;SDS011;12510;56.468;-3.004;2023-06-26T10:51:45;15.85;;;14.70;;
24389;SDS011;12510;56.468;-3.004;2023-06-26T10:54:14;4.28;;;3.70;;
24389;SDS011;12510;56.468;-3.004;2023-06-26T10:59:26;3.90;;;2.60;;
24389;SDS011;12510;56.468;-3.004;2023-06-26T11:02:03;6.53;;;6.03;;
24389;SDS011;12510;56.468;-3.004;2023-06-26T11:07:26;7.40;;;6.80;;
24389;SDS011;12510;56.468;-3.004;2023-06-26T11:09:53;6.53;;;5.95;;
24389;SDS011;12510;56.468;-3.004;2023-06-26T11:15:14;10.25;;;9.23;;
24389;SDS011;12510;56.468;-3.004;2023-06-26T11:17:42;3.35;;;1.50;;
24389;SDS011;12510;56.468;-3.004;2023-06-26T11:20:13;3.00;;;2.72;;
24389;SDS011;12510;56.468;-3.004;2023-06-26T11:22:42;5.95;;;5.32;;
24389;SDS011;12510;56.468;-3.004;2023-06-26T11:25:09;7.78;;;4.32;;
24389;SDS011;12510;56.468;-3.004;2023-06-26T11:30:07;7.93;;;7.20;;
24389;SDS011;12510;56.468;-3.004;2023-06-26T11:32:48;7.57;;;6.88;;
24389;SDS011;12510;56.468;-3.004;2023-06-26T11:35:24;4.97;;;4.53;;
24389;SDS011;12510;56.468;-3.004;2023-06-26T11:37:57;8.35;;;7.63;;
24389;SDS011;12510;56.468;-3.004;2023-06-26T11:40:30;4.80;;;3.92;;
24389;SDS011;12510;56.468;-3.004;2023-06-26T11:43:00;6.30;;;5.68;;
24389;SDS011;12510;56.468;-3.004;2023-06-26T11:45:30;6.47;;;6.10;;
24389;SDS011;12510;56.468;-3.004;2023-06-26T11:47:58;4.30;;;3.85;;
24389;SDS011;12510;56.468;-3.004;2023-06-26T11:50:25;5.10;;;4.28;;
24389;SDS011;12510;56.468;-3.004;2023-06-26T11:52:55;5.55;;;4.00;;
24389;SDS011;12510;56.468;-3.004;2023-06-26T11:55:23;28.92;;;26.73;;
24389;SDS011;12510;56.468;-3.004;2023-06-26T11:57:52;9.55;;;8.70;;
24389;SDS011;12510;56.468;-3.004;2023-06-26T12:00:20;5.22;;;4.88;;
24389;SDS011;12510;56.468;-3.004;2023-06-26T12:02:47;7.70;;;7.20;;
24389;SDS011;12510;56.468;-3.004;2023-06-26T12:05:15;11.32;;;10.70;;
24389;SDS011;12510;56.468;-3.004;2023-06-26T12:07:43;7.20;;;6.70;;
24389;SDS011;12510;56.468;-3.004;2023-06-26T12:10:13;3.78;;;3.20;;
24389;SDS011;12510;56.468;-3.004;2023-06-26T12:12:41;3.28;;;3.08;;
24389;SDS011;12510;56.468;-3.004;2023-06-26T12:15:08;4.65;;;4.22;;
24389;SDS011;12510;56.468;-3.004;2023-06-26T12:17:37;11.20;;;10.50;;
24389;SDS011;12510;56.468;-3.004;2023-06-26T12:20:21;3.92;;;3.70;;
24389;SDS011;12510;56.468;-3.004;2023-06-26T12:25:15;4.60;;;1.80;;
24389;SDS011;12510;56.468;-3.004;2023-06-26T12:27:44;4.18;;;2.88;;
24389;SDS011;12510;56.468;-3.004;2023-06-26T12:30:12;6.43;;;3.58;;
24389;SDS011;12510;56.468;-3.004;2023-06-26T12:32:38;5.60;;;5.13;;
24389;SDS011;12510;56.468;-3.004;2023-06-26T12:35:05;11.80;;;7.45;;
24389;SDS011;12510;56.468;-3.004;2023-06-26T12:37:36;3.35;;;3.15;;
24389;SDS011;12510;56.468;-3.004;2023-06-26T12:40:15;4.25;;;3.83;;
24389;SDS011;12510;56.468;-3.004;2023-06-26T12:42:44;4.40;;;3.65;;
24389;SDS011;12510;56.468;-3.004;2023-06-26T12:45:11;5.00;;;4.60;;
24389;SDS011;12510;56.468;-3.004;2023-06-26T12:47:39;5.60;;;4.05;;
24389;SDS011;12510;56.468;-3.004;2023-06-26T12:50:07;5.05;;;3.05;;
24389;SDS011;12510;56.468;-3.004;2023-06-26T12:52:34;5.68;;;5.20;;
24389;SDS011;12510;56.468;-3.004;2023-06-26T12:55:01;7.95;;;3.22;;
24389;SDS011;12510;56.468;-3.004;2023-06-26T12:57:27;4.85;;;4.45;;
24389;SDS011;12510;56.468;-3.004;2023-06-26T12:59:54;10.57;;;9.68;;
24389;SDS011;12510;56.468;-3.004;2023-06-26T13:02:20;13.23;;;12.32;;
24389;SDS011;12510;56.468;-3.004;2023-06-26T13:04:47;8.93;;;7.82;;
24389;SDS011;12510;56.468;-3.004;2023-06-26T13:07:14;5.68;;;5.28;;
24389;SDS011;12510;56.468;-3.004;2023-06-26T13:09:40;11.43;;;10.43;;
24389;SDS011;12510;56.468;-3.004;2023-06-26T13:12:07;6.45;;;5.95;;
24389;SDS011;12510;56.468;-3.004;2023-06-26T13:14:34;4.90;;;4.63;;
24389;SDS011;12510;56.468;-3.004;2023-06-26T13:17:00;9.18;;;8.68;;
24389;SDS011;12510;56.468;-3.004;2023-06-26T13:19:27;3.80;;;3.60;;
24389;SDS011;12510;56.468;-3.004;2023-06-26T13:21:54;13.35;;;12.52;;
24389;SDS011;12510;56.468;-3.004;2023-06-26T13:24:20;2.72;;;1.75;;
24389;SDS011;12510;56.468;-3.004;2023-06-26T13:26:47;7.40;;;6.85;;
24389;SDS011;12510;56.468;-3.004;2023-06-26T13:29:13;7.78;;;7.05;;
24389;SDS011;12510;56.468;-3.004;2023-06-26T13:31:40;12.27;;;11.48;;
24389;SDS011;12510;56.468;-3.004;2023-06-26T13:34:06;5.20;;;4.85;;
24389;SDS011;12510;56.468;-3.004;2023-06-26T13:36:33;4.13;;;3.90;;
24389;SDS011;12510;56.468;-3.004;2023-06-26T13:39:03;7.35;;;6.70;;
24389;SDS011;12510;56.468;-3.004;2023-06-26T13:41:30;11.70;;;10.43;;
24389;SDS011;12510;56.468;-3.004;2023-06-26T13:43:56;4.13;;;3.45;;
24389;SDS011;12510;56.468;-3.004;2023-06-26T13:46:23;5.03;;;4.72;;
24389;SDS011;12510;56.468;-3.004;2023-06-26T13:48:49;9.82;;;9.23;;
24389;SDS011;12510;56.468;-3.004;2023-06-26T13:51:16;7.47;;;7.07;;
24389;SDS011;12510;56.468;-3.004;2023-06-26T13:53:42;15.80;;;14.82;;
24389;SDS011;12510;56.468;-3.004;2023-06-26T13:56:08;12.45;;;11.68;;
24389;SDS011;12510;56.468;-3.004;2023-06-26T13:58:35;10.10;;;9.20;;
24389;SDS011;12510;56.468;-3.004;2023-06-26T14:01:02;12.02;;;11.13;;
24389;SDS011;12510;56.468;-3.004;2023-06-26T14:03:30;16.33;;;15.23;;
24389;SDS011;12510;56.468;-3.004;2023-06-26T14:05:57;4.55;;;4.20;;
24389;SDS011;12510;56.468;-3.004;2023-06-26T14:08:23;3.22;;;3.03;;
24389;SDS011;12510;56.468;-3.004;2023-06-26T14:10:50;2.60;;;2.47;;
24389;SDS011;12510;56.468;-3.004;2023-06-26T14:13:16;4.55;;;4.13;;
24389;SDS011;12510;56.468;-3.004;2023-06-26T14:15:43;3.65;;;2.40;;
24389;SDS011;12510;56.468;-3.004;2023-06-26T14:18:09;3.35;;;1.40;;
24389;SDS011;12510;56.468;-3.004;2023-06-26T14:20:36;4.95;;;4.57;;
24389;SDS011;12510;56.468;-3.004;2023-06-26T14:23:02;3.50;;;3.00;;
24389;SDS011;12510;56.468;-3.004;2023-06-26T14:25:29;3.03;;;2.30;;
24389;SDS011;12510;56.468;-3.004;2023-06-26T14:27:55;3.28;;;3.00;;
24389;SDS011;12510;56.468;-3.004;2023-06-26T14:30:23;3.38;;;3.08;;
24389;SDS011;12510;56.468;-3.004;2023-06-26T14:32:49;1.60;;;1.50;;
24389;SDS011;12510;56.468;-3.004;2023-06-26T14:35:16;7.20;;;6.50;;
24389;SDS011;12510;56.468;-3.004;2023-06-26T14:37:43;4.03;;;3.60;;
24389;SDS011;12510;56.468;-3.004;2023-06-26T14:40:10;3.10;;;2.25;;
24389;SDS011;12510;56.468;-3.004;2023-06-26T14:42:37;5.57;;;5.18;;
24389;SDS011;12510;56.468;-3.004;2023-06-26T14:45:03;8.88;;;6.97;;
24389;SDS011;12510;56.468;-3.004;2023-06-26T14:47:31;7.93;;;7.38;;
24389;SDS011;12510;56.468;-3.004;2023-06-26T14:49:57;35.58;;;32.75;;
24389;SDS011;12510;56.468;-3.004;2023-06-26T14:52:24;6.75;;;6.38;;
24389;SDS011;12510;56.468;-3.004;2023-06-26T14:54:50;4.00;;;3.28;;
24389;SDS011;12510;56.468;-3.004;2023-06-26T14:57:17;8.88;;;7.75;;
24389;SDS011;12510;56.468;-3.004;2023-06-26T14:59:43;12.75;;;11.98;;